sensor_id;sensor_type;location;lat;lon;timestamp;P1;P2;P0
76483;PMS5003;65318;-33.924;18.406;2023-07-13T00:02:08;6;6;
76483;PMS5003;65318;-33.924;18.406;2023-07-13T00:04:33;5;5;
76483;PMS5003;65318;-33.924;18.406;2023-07-13T00:06:59;7;6;
76483;PMS5003;65318;-33.924;18.406;2023-07-13T00:09:25;7;6;
76483;PMS5003;65318;-33.924;18.406;2023-07-13T00:11:51;7;6;
76483;PMS5003;65318;-33.924;18.406;2023-07-13T00:14:16;7;6;
76483;PMS5003;65318;-33.924;18.406;2023-07-13T00:16:42;7;5;
76483;PMS5003;65318;-33.924;18.406;2023-07-13T00:19:07;6;6;
76483;PMS5003;65318;-33.924;18.406;2023-07-13T00:21:33;8;8;
76483;PMS5003;65318;-33.924;18.406;2023-07-13T00:23:58;5;5;
76483;PMS5003;65318;-33.924;18.406;2023-07-13T00:26:24;5;5;
76483;PMS5003;65318;-33.924;18.406;2023-07-13T00:28:49;5;5;
76483;PMS5003;65318;-33.924;18.406;2023-07-13T00:31:15;7;7;
76483;PMS5003;65318;-33.924;18.406;2023-07-13T00:33:41;7;6;
76483;PMS5003;65318;-33.924;18.406;2023-07-13T00:36:07;5;5;
76483;PMS5003;65318;-33.924;18.406;2023-07-13T00:38:32;4;4;
76483;PMS5003;65318;-33.924;18.406;2023-07-13T00:40:57;5;5;
76483;PMS5003;65318;-33.924;18.406;2023-07-13T00:43:24;5;4;
76483;PMS5003;65318;-33.924;18.406;2023-07-13T00:48:15;5;5;
76483;PMS5003;65318;-33.924;18.406;2023-07-13T00:50:40;3;3;
76483;PMS5003;65318;-33.924;18.406;2023-07-13T00:53:06;5;5;
76483;PMS5003;65318;-33.924;18.406;2023-07-13T00:55:31;5;5;
76483;PMS5003;65318;-33.924;18.406;2023-07-13T00:57:57;6;5;
76483;PMS5003;65318;-33.924;18.406;2023-07-13T01:00:22;6;6;
76483;PMS5003;65318;-33.924;18.406;2023-07-13T01:02:48;7;6;
76483;PMS5003;65318;-33.924;18.406;2023-07-13T01:05:14;6;6;
76483;PMS5003;65318;-33.924;18.406;2023-07-13T01:07:39;5;5;
76483;PMS5003;65318;-33.924;18.406;2023-07-13T01:10:05;5;5;
76483;PMS5003;65318;-33.924;18.406;2023-07-13T01:12:30;4;4;
76483;PMS5003;65318;-33.924;18.406;2023-07-13T01:14:57;5;5;
76483;PMS5003;65318;-33.924;18.406;2023-07-13T01:17:22;6;6;
76483;PMS5003;65318;-33.924;18.406;2023-07-13T01:19:47;5;5;
76483;PMS5003;65318;-33.924;18.406;2023-07-13T01:24:40;5;4;
76483;PMS5003;65318;-33.924;18.406;2023-07-13T01:27:05;5;5;
76483;PMS5003;65318;-33.924;18.406;2023-07-13T01:29:30;5;5;
76483;PMS5003;65318;-33.924;18.406;2023-07-13T01:31:55;6;5;
76483;PMS5003;65318;-33.924;18.406;2023-07-13T01:34:21;5;5;
76483;PMS5003;65318;-33.924;18.406;2023-07-13T01:36:47;4;4;
76483;PMS5003;65318;-33.924;18.406;2023-07-13T01:39:12;5;4;
76483;PMS5003;65318;-33.924;18.406;2023-07-13T01:41:38;5;5;
76483;PMS5003;65318;-33.924;18.406;2023-07-13T01:44:03;5;5;
76483;PMS5003;65318;-33.924;18.406;2023-07-13T01:46:29;5;5;
76483;PMS5003;65318;-33.924;18.406;2023-07-13T01:48:55;4;4;
76483;PMS5003;65318;-33.924;18.406;2023-07-13T01:51:20;6;5;
76483;PMS5003;65318;-33.924;18.406;2023-07-13T01:53:46;3;3;
76483;PMS5003;65318;-33.924;18.406;2023-07-13T01:56:11;5;5;
76483;PMS5003;65318;-33.924;18.406;2023-07-13T01:58:37;5;5;
76483;PMS5003;65318;-33.924;18.406;2023-07-13T02:01:03;5;4;
76483;PMS5003;65318;-33.924;18.406;2023-07-13T02:03:28;6;5;
76483;PMS5003;65318;-33.924;18.406;2023-07-13T02:05:54;3;3;
76483;PMS5003;65318;-33.924;18.406;2023-07-13T02:08:19;6;5;
76483;PMS5003;65318;-33.924;18.406;2023-07-13T02:10:45;7;6;
76483;PMS5003;65318;-33.924;18.406;2023-07-13T02:13:11;4;4;
76483;PMS5003;65318;-33.924;18.406;2023-07-13T02:15:38;5;5;
76483;PMS5003;65318;-33.924;18.406;2023-07-13T02:18:02;4;4;
76483;PMS5003;65318;-33.924;18.406;2023-07-13T04:10:25;2;2;
76483;PMS5003;65318;-33.924;18.406;2023-07-13T04:12:50;5;4;
76483;PMS5003;65318;-33.924;18.406;2023-07-13T04:15:16;5;3;
76483;PMS5003;65318;-33.924;18.406;2023-07-13T04:17:41;2;2;
76483;PMS5003;65318;-33.924;18.406;2023-07-13T04:20:07;4;3;
76483;PMS5003;65318;-33.924;18.406;2023-07-13T04:22:33;1;1;
76483;PMS5003;65318;-33.924;18.406;2023-07-13T04:24:58;4;2;
76483;PMS5003;65318;-33.924;18.406;2023-07-13T04:27:24;0;0;
76483;PMS5003;65318;-33.924;18.406;2023-07-13T04:29:49;4;4;
76483;PMS5003;65318;-33.924;18.406;2023-07-13T04:32:15;3;3;
76483;PMS5003;65318;-33.924;18.406;2023-07-13T04:34:41;3;3;
76483;PMS5003;65318;-33.924;18.406;2023-07-13T04:37:06;3;3;
76483;PMS5003;65318;-33.924;18.406;2023-07-13T04:39:32;3;3;
76483;PMS5003;65318;-33.924;18.406;2023-07-13T04:41:57;3;2;
76483;PMS5003;65318;-33.924;18.406;2023-07-13T04:44:23;3;3;
76483;PMS5003;65318;-33.924;18.406;2023-07-13T04:46:49;2;2;
76483;PMS5003;65318;-33.924;18.406;2023-07-13T04:49:14;3;3;
76483;PMS5003;65318;-33.924;18.406;2023-07-13T04:51:40;2;2;
76483;PMS5003;65318;-33.924;18.406;2023-07-13T04:54:05;1;1;
76483;PMS5003;65318;-33.924;18.406;2023-07-13T04:56:31;3;3;
76483;PMS5003;65318;-33.924;18.406;2023-07-13T04:58:57;3;3;
76483;PMS5003;65318;-33.924;18.406;2023-07-13T05:01:22;2;2;
76483;PMS5003;65318;-33.924;18.406;2023-07-13T05:03:48;3;3;
76483;PMS5003;65318;-33.924;18.406;2023-07-13T05:06:14;4;3;
76483;PMS5003;65318;-33.924;18.406;2023-07-13T05:08:39;4;3;
76483;PMS5003;65318;-33.924;18.406;2023-07-13T05:11:05;3;2;
76483;PMS5003;65318;-33.924;18.406;2023-07-13T05:13:30;4;3;
76483;PMS5003;65318;-33.924;18.406;2023-07-13T05:15:57;3;3;
76483;PMS5003;65318;-33.924;18.406;2023-07-13T05:18:22;4;4;
76483;PMS5003;65318;-33.924;18.406;2023-07-13T05:20:47;2;2;
76483;PMS5003;65318;-33.924;18.406;2023-07-13T05:23:13;4;2;
76483;PMS5003;65318;-33.924;18.406;2023-07-13T05:25:39;3;3;
76483;PMS5003;65318;-33.924;18.406;2023-07-13T05:28:04;2;2;
76483;PMS5003;65318;-33.924;18.406;2023-07-13T05:30:30;2;2;
76483;PMS5003;65318;-33.924;18.406;2023-07-13T05:32:55;3;2;
76483;PMS5003;65318;-33.924;18.406;2023-07-13T05:35:21;2;2;
76483;PMS5003;65318;-33.924;18.406;2023-07-13T05:37:46;2;2;
76483;PMS5003;65318;-33.924;18.406;2023-07-13T05:40:12;2;2;
76483;PMS5003;65318;-33.924;18.406;2023-07-13T05:42:38;5;3;
76483;PMS5003;65318;-33.924;18.406;2023-07-13T05:47:29;2;2;
76483;PMS5003;65318;-33.924;18.406;2023-07-13T05:49:54;2;2;
76483;PMS5003;65318;-33.924;18.406;2023-07-13T05:52:20;2;2;
76483;PMS5003;65318;-33.924;18.406;2023-07-13T05:54:46;3;3;
76483;PMS5003;65318;-33.924;18.406;2023-07-13T05:57:11;4;2;
76483;PMS5003;65318;-33.924;18.406;2023-07-13T05:59:37;3;3;
76483;PMS5003;65318;-33.924;18.406;2023-07-13T06:02:03;4;4;
76483;PMS5003;65318;-33.924;18.406;2023-07-13T06:04:28;2;2;
76483;PMS5003;65318;-33.924;18.406;2023-07-13T06:06:54;3;3;
76483;PMS5003;65318;-33.924;18.406;2023-07-13T06:09:19;0;0;
76483;PMS5003;65318;-33.924;18.406;2023-07-13T06:11:45;1;1;
76483;PMS5003;65318;-33.924;18.406;2023-07-13T06:14:10;2;1;
76483;PMS5003;65318;-33.924;18.406;2023-07-13T06:16:36;4;4;
76483;PMS5003;65318;-33.924;18.406;2023-07-13T06:19:02;0;0;
76483;PMS5003;65318;-33.924;18.406;2023-07-13T06:21:27;2;2;
76483;PMS5003;65318;-33.924;18.406;2023-07-13T06:23:53;1;1;
76483;PMS5003;65318;-33.924;18.406;2023-07-13T06:26:19;2;2;
76483;PMS5003;65318;-33.924;18.406;2023-07-13T06:28:44;2;2;
76483;PMS5003;65318;-33.924;18.406;2023-07-13T06:31:10;2;2;
76483;PMS5003;65318;-33.924;18.406;2023-07-13T06:33:35;3;3;
76483;PMS5003;65318;-33.924;18.406;2023-07-13T06:36:01;3;3;
76483;PMS5003;65318;-33.924;18.406;2023-07-13T06:38:26;3;3;
76483;PMS5003;65318;-33.924;18.406;2023-07-13T06:40:52;2;2;
76483;PMS5003;65318;-33.924;18.406;2023-07-13T06:43:17;1;1;
76483;PMS5003;65318;-33.924;18.406;2023-07-13T06:45:45;2;2;
76483;PMS5003;65318;-33.924;18.406;2023-07-13T06:48:09;1;1;
76483;PMS5003;65318;-33.924;18.406;2023-07-13T06:50:34;2;1;
76483;PMS5003;65318;-33.924;18.406;2023-07-13T06:52:59;1;1;
76483;PMS5003;65318;-33.924;18.406;2023-07-13T06:55:25;2;2;
76483;PMS5003;65318;-33.924;18.406;2023-07-13T06:57:50;3;3;
76483;PMS5003;65318;-33.924;18.406;2023-07-13T07:00:16;3;3;
76483;PMS5003;65318;-33.924;18.406;2023-07-13T07:02:42;3;3;
76483;PMS5003;65318;-33.924;18.406;2023-07-13T07:05:07;2;2;
76483;PMS5003;65318;-33.924;18.406;2023-07-13T07:07:33;3;2;
76483;PMS5003;65318;-33.924;18.406;2023-07-13T07:09:58;3;2;
76483;PMS5003;65318;-33.924;18.406;2023-07-13T07:12:24;1;1;
76483;PMS5003;65318;-33.924;18.406;2023-07-13T07:14:50;1;1;
76483;PMS5003;65318;-33.924;18.406;2023-07-13T07:17:15;2;2;
76483;PMS5003;65318;-33.924;18.406;2023-07-13T07:19:41;1;1;
76483;PMS5003;65318;-33.924;18.406;2023-07-13T07:22:06;0;0;
76483;PMS5003;65318;-33.924;18.406;2023-07-13T07:24:32;1;1;
76483;PMS5003;65318;-33.924;18.406;2023-07-13T07:26:57;1;1;
76483;PMS5003;65318;-33.924;18.406;2023-07-13T07:29:23;2;2;
76483;PMS5003;65318;-33.924;18.406;2023-07-13T07:31:49;2;2;
76483;PMS5003;65318;-33.924;18.406;2023-07-13T07:34:14;2;2;
76483;PMS5003;65318;-33.924;18.406;2023-07-13T07:36:40;3;2;
76483;PMS5003;65318;-33.924;18.406;2023-07-13T07:39:05;3;3;
76483;PMS5003;65318;-33.924;18.406;2023-07-13T07:41:31;3;3;
76483;PMS5003;65318;-33.924;18.406;2023-07-13T07:43:57;2;2;
76483;PMS5003;65318;-33.924;18.406;2023-07-13T07:46:22;1;1;
76483;PMS5003;65318;-33.924;18.406;2023-07-13T07:48:48;3;3;
76483;PMS5003;65318;-33.924;18.406;2023-07-13T07:51:13;3;3;
76483;PMS5003;65318;-33.924;18.406;2023-07-13T07:53:39;1;1;
76483;PMS5003;65318;-33.924;18.406;2023-07-13T07:56:04;2;2;
76483;PMS5003;65318;-33.924;18.406;2023-07-13T07:58:30;4;3;
76483;PMS5003;65318;-33.924;18.406;2023-07-13T08:03:21;5;4;
76483;PMS5003;65318;-33.924;18.406;2023-07-13T08:05:47;4;4;
76483;PMS5003;65318;-33.924;18.406;2023-07-13T08:08:12;6;6;
76483;PMS5003;65318;-33.924;18.406;2023-07-13T08:10:38;5;5;
76483;PMS5003;65318;-33.924;18.406;2023-07-13T08:13:04;4;4;
76483;PMS5003;65318;-33.924;18.406;2023-07-13T08:15:29;5;5;
76483;PMS5003;65318;-33.924;18.406;2023-07-13T08:17:54;5;4;
76483;PMS5003;65318;-33.924;18.406;2023-07-13T08:20:20;3;2;
76483;PMS5003;65318;-33.924;18.406;2023-07-13T08:22:46;4;3;
76483;PMS5003;65318;-33.924;18.406;2023-07-13T08:25:11;2;2;
76483;PMS5003;65318;-33.924;18.406;2023-07-13T08:27:37;3;3;
76483;PMS5003;65318;-33.924;18.406;2023-07-13T08:30:03;3;3;
76483;PMS5003;65318;-33.924;18.406;2023-07-13T08:32:28;2;2;
76483;PMS5003;65318;-33.924;18.406;2023-07-13T08:34:53;2;2;
76483;PMS5003;65318;-33.924;18.406;2023-07-13T08:37:19;4;3;
76483;PMS5003;65318;-33.924;18.406;2023-07-13T08:39:44;1;1;
76483;PMS5003;65318;-33.924;18.406;2023-07-13T08:42:12;3;2;
76483;PMS5003;65318;-33.924;18.406;2023-07-13T08:44:37;1;1;
76483;PMS5003;65318;-33.924;18.406;2023-07-13T08:47:02;2;2;
76483;PMS5003;65318;-33.924;18.406;2023-07-13T08:49:27;4;3;
76483;PMS5003;65318;-33.924;18.406;2023-07-13T08:51:53;2;2;
76483;PMS5003;65318;-33.924;18.406;2023-07-13T08:54:19;2;2;
76483;PMS5003;65318;-33.924;18.406;2023-07-13T08:56:44;3;3;
76483;PMS5003;65318;-33.924;18.406;2023-07-13T08:59:11;1;1;
76483;PMS5003;65318;-33.924;18.406;2023-07-13T09:01:41;2;2;
76483;PMS5003;65318;-33.924;18.406;2023-07-13T09:04:03;2;2;
76483;PMS5003;65318;-33.924;18.406;2023-07-13T09:06:27;2;2;
76483;PMS5003;65318;-33.924;18.406;2023-07-13T09:08:53;2;2;
76483;PMS5003;65318;-33.924;18.406;2023-07-13T09:11:21;2;2;
76483;PMS5003;65318;-33.924;18.406;2023-07-13T09:13:43;3;3;
76483;PMS5003;65318;-33.924;18.406;2023-07-13T09:16:08;3;3;
76483;PMS5003;65318;-33.924;18.406;2023-07-13T09:18:34;3;3;
76483;PMS5003;65318;-33.924;18.406;2023-07-13T09:21:00;3;3;
76483;PMS5003;65318;-33.924;18.406;2023-07-13T09:23:26;3;3;
76483;PMS5003;65318;-33.924;18.406;2023-07-13T09:25:51;3;3;
76483;PMS5003;65318;-33.924;18.406;2023-07-13T09:28:16;2;1;
76483;PMS5003;65318;-33.924;18.406;2023-07-13T09:30:46;3;3;
76483;PMS5003;65318;-33.924;18.406;2023-07-13T09:33:06;2;1;
76483;PMS5003;65318;-33.924;18.406;2023-07-13T09:35:32;2;2;
76483;PMS5003;65318;-33.924;18.406;2023-07-13T09:37:58;3;3;
76483;PMS5003;65318;-33.924;18.406;2023-07-13T09:40:24;3;3;
76483;PMS5003;65318;-33.924;18.406;2023-07-13T09:42:48;4;4;
76483;PMS5003;65318;-33.924;18.406;2023-07-13T09:45:14;5;4;
76483;PMS5003;65318;-33.924;18.406;2023-07-13T09:47:40;4;4;
76483;PMS5003;65318;-33.924;18.406;2023-07-13T09:50:07;4;4;
76483;PMS5003;65318;-33.924;18.406;2023-07-13T09:54:56;4;3;
76483;PMS5003;65318;-33.924;18.406;2023-07-13T09:57:22;2;2;
76483;PMS5003;65318;-33.924;18.406;2023-07-13T09:59:48;4;4;
76483;PMS5003;65318;-33.924;18.406;2023-07-13T10:04:38;3;3;
76483;PMS5003;65318;-33.924;18.406;2023-07-13T10:07:05;4;4;
76483;PMS5003;65318;-33.924;18.406;2023-07-13T10:09:29;5;4;
76483;PMS5003;65318;-33.924;18.406;2023-07-13T10:11:54;4;3;
76483;PMS5003;65318;-33.924;18.406;2023-07-13T10:14:21;3;3;
76483;PMS5003;65318;-33.924;18.406;2023-07-13T10:16:46;4;3;
76483;PMS5003;65318;-33.924;18.406;2023-07-13T10:19:12;3;3;
76483;PMS5003;65318;-33.924;18.406;2023-07-13T12:05:26;2;2;
76483;PMS5003;65318;-33.924;18.406;2023-07-13T12:07:51;5;4;
76483;PMS5003;65318;-33.924;18.406;2023-07-13T12:10:19;3;3;
76483;PMS5003;65318;-33.924;18.406;2023-07-13T12:12:46;5;5;
76483;PMS5003;65318;-33.924;18.406;2023-07-13T12:15:08;5;4;
76483;PMS5003;65318;-33.924;18.406;2023-07-13T12:17:34;4;4;
76483;PMS5003;65318;-33.924;18.406;2023-07-13T12:19:59;4;4;
76483;PMS5003;65318;-33.924;18.406;2023-07-13T12:22:24;3;3;
76483;PMS5003;65318;-33.924;18.406;2023-07-13T12:24:50;4;4;
76483;PMS5003;65318;-33.924;18.406;2023-07-13T12:27:18;5;5;
76483;PMS5003;65318;-33.924;18.406;2023-07-13T12:29:48;5;5;
76483;PMS5003;65318;-33.924;18.406;2023-07-13T12:32:08;4;4;
76483;PMS5003;65318;-33.924;18.406;2023-07-13T12:34:32;4;4;
76483;PMS5003;65318;-33.924;18.406;2023-07-13T12:36:58;5;5;
76483;PMS5003;65318;-33.924;18.406;2023-07-13T12:39:24;4;4;
76483;PMS5003;65318;-33.924;18.406;2023-07-13T12:41:49;6;6;
76483;PMS5003;65318;-33.924;18.406;2023-07-13T12:44:15;4;4;
76483;PMS5003;65318;-33.924;18.406;2023-07-13T12:46:47;6;6;
76483;PMS5003;65318;-33.924;18.406;2023-07-13T12:49:06;4;4;
76483;PMS5003;65318;-33.924;18.406;2023-07-13T12:51:31;6;6;
76483;PMS5003;65318;-33.924;18.406;2023-07-13T12:53:57;7;7;
76483;PMS5003;65318;-33.924;18.406;2023-07-13T12:56:23;5;5;
76483;PMS5003;65318;-33.924;18.406;2023-07-13T12:58:48;9;7;
76483;PMS5003;65318;-33.924;18.406;2023-07-13T13:01:13;5;5;
76483;PMS5003;65318;-33.924;18.406;2023-07-13T13:03:39;4;4;
76483;PMS5003;65318;-33.924;18.406;2023-07-13T13:06:05;5;5;
76483;PMS5003;65318;-33.924;18.406;2023-07-13T13:08:30;6;6;
76483;PMS5003;65318;-33.924;18.406;2023-07-13T13:10:55;6;6;
76483;PMS5003;65318;-33.924;18.406;2023-07-13T13:13:21;6;6;
76483;PMS5003;65318;-33.924;18.406;2023-07-13T13:15:47;5;5;
76483;PMS5003;65318;-33.924;18.406;2023-07-13T13:18:15;6;5;
76483;PMS5003;65318;-33.924;18.406;2023-07-13T13:20:38;6;6;
76483;PMS5003;65318;-33.924;18.406;2023-07-13T13:23:04;4;4;
76483;PMS5003;65318;-33.924;18.406;2023-07-13T13:25:29;7;7;
76483;PMS5003;65318;-33.924;18.406;2023-07-13T13:27:54;7;6;
76483;PMS5003;65318;-33.924;18.406;2023-07-13T13:30:20;6;6;
76483;PMS5003;65318;-33.924;18.406;2023-07-13T13:32:47;7;6;
76483;PMS5003;65318;-33.924;18.406;2023-07-13T13:35:12;6;6;
76483;PMS5003;65318;-33.924;18.406;2023-07-13T13:37:37;7;6;
76483;PMS5003;65318;-33.924;18.406;2023-07-13T13:40:04;6;6;
76483;PMS5003;65318;-33.924;18.406;2023-07-13T13:42:28;6;6;
76483;PMS5003;65318;-33.924;18.406;2023-07-13T13:44:53;8;8;
76483;PMS5003;65318;-33.924;18.406;2023-07-13T13:47:30;7;7;
76483;PMS5003;65318;-33.924;18.406;2023-07-13T13:49:45;8;8;
76483;PMS5003;65318;-33.924;18.406;2023-07-13T13:52:11;7;6;
76483;PMS5003;65318;-33.924;18.406;2023-07-13T13:54:37;6;6;
76483;PMS5003;65318;-33.924;18.406;2023-07-13T13:57:01;7;7;
76483;PMS5003;65318;-33.924;18.406;2023-07-13T13:59:27;8;8;
76483;PMS5003;65318;-33.924;18.406;2023-07-13T14:01:52;8;7;
76483;PMS5003;65318;-33.924;18.406;2023-07-13T14:04:18;9;8;
76483;PMS5003;65318;-33.924;18.406;2023-07-13T14:06:44;7;7;
76483;PMS5003;65318;-33.924;18.406;2023-07-13T14:09:10;7;7;
76483;PMS5003;65318;-33.924;18.406;2023-07-13T14:11:35;7;7;
76483;PMS5003;65318;-33.924;18.406;2023-07-13T14:14:00;8;8;
76483;PMS5003;65318;-33.924;18.406;2023-07-13T14:16:26;5;5;
76483;PMS5003;65318;-33.924;18.406;2023-07-13T14:18:51;6;5;
76483;PMS5003;65318;-33.924;18.406;2023-07-13T14:21:18;5;5;
76483;PMS5003;65318;-33.924;18.406;2023-07-13T14:23:43;7;6;
76483;PMS5003;65318;-33.924;18.406;2023-07-13T14:26:10;7;7;
76483;PMS5003;65318;-33.924;18.406;2023-07-13T14:28:41;7;7;
76483;PMS5003;65318;-33.924;18.406;2023-07-13T14:30:59;7;6;
76483;PMS5003;65318;-33.924;18.406;2023-07-13T14:33:25;11;9;
76483;PMS5003;65318;-33.924;18.406;2023-07-13T14:35:50;9;9;
76483;PMS5003;65318;-33.924;18.406;2023-07-13T14:38:17;7;7;
76483;PMS5003;65318;-33.924;18.406;2023-07-13T14:40:42;8;7;
76483;PMS5003;65318;-33.924;18.406;2023-07-13T14:43:09;6;6;
76483;PMS5003;65318;-33.924;18.406;2023-07-13T14:45:39;8;8;
76483;PMS5003;65318;-33.924;18.406;2023-07-13T14:47:58;9;8;
76483;PMS5003;65318;-33.924;18.406;2023-07-13T14:50:27;8;8;
76483;PMS5003;65318;-33.924;18.406;2023-07-13T14:52:49;9;8;
76483;PMS5003;65318;-33.924;18.406;2023-07-13T14:55:15;8;8;
76483;PMS5003;65318;-33.924;18.406;2023-07-13T14:57:40;6;6;
76483;PMS5003;65318;-33.924;18.406;2023-07-13T15:02:32;10;9;
76483;PMS5003;65318;-33.924;18.406;2023-07-13T15:07:22;7;7;
76483;PMS5003;65318;-33.924;18.406;2023-07-13T15:09:48;7;6;
76483;PMS5003;65318;-33.924;18.406;2023-07-13T15:12:14;7;7;
76483;PMS5003;65318;-33.924;18.406;2023-07-13T15:14:39;7;6;
76483;PMS5003;65318;-33.924;18.406;2023-07-13T15:17:08;9;9;
76483;PMS5003;65318;-33.924;18.406;2023-07-13T15:19:31;13;12;
76483;PMS5003;65318;-33.924;18.406;2023-07-13T15:21:56;8;8;
76483;PMS5003;65318;-33.924;18.406;2023-07-13T15:24:22;7;7;
76483;PMS5003;65318;-33.924;18.406;2023-07-13T15:26:47;7;7;
76483;PMS5003;65318;-33.924;18.406;2023-07-13T15:29:13;9;8;
76483;PMS5003;65318;-33.924;18.406;2023-07-13T15:31:38;9;9;
76483;PMS5003;65318;-33.924;18.406;2023-07-13T15:34:04;10;9;
76483;PMS5003;65318;-33.924;18.406;2023-07-13T15:36:29;8;8;
76483;PMS5003;65318;-33.924;18.406;2023-07-13T15:38:55;8;8;
76483;PMS5003;65318;-33.924;18.406;2023-07-13T15:41:21;7;7;
76483;PMS5003;65318;-33.924;18.406;2023-07-13T15:43:46;8;8;
76483;PMS5003;65318;-33.924;18.406;2023-07-13T15:46:11;7;7;
76483;PMS5003;65318;-33.924;18.406;2023-07-13T15:48:37;11;10;
76483;PMS5003;65318;-33.924;18.406;2023-07-13T15:51:03;10;10;
76483;PMS5003;65318;-33.924;18.406;2023-07-13T15:53:29;9;8;
76483;PMS5003;65318;-33.924;18.406;2023-07-13T15:55:54;12;10;
76483;PMS5003;65318;-33.924;18.406;2023-07-13T15:58:19;14;13;
76483;PMS5003;65318;-33.924;18.406;2023-07-13T16:00:44;10;9;
76483;PMS5003;65318;-33.924;18.406;2023-07-13T16:03:10;9;9;
76483;PMS5003;65318;-33.924;18.406;2023-07-13T16:05:35;11;11;
76483;PMS5003;65318;-33.924;18.406;2023-07-13T16:08:01;9;9;
76483;PMS5003;65318;-33.924;18.406;2023-07-13T16:10:27;12;11;
76483;PMS5003;65318;-33.924;18.406;2023-07-13T16:12:51;10;10;
76483;PMS5003;65318;-33.924;18.406;2023-07-13T16:15:18;12;11;
76483;PMS5003;65318;-33.924;18.406;2023-07-13T16:17:43;11;11;
76483;PMS5003;65318;-33.924;18.406;2023-07-13T16:20:08;10;9;
76483;PMS5003;65318;-33.924;18.406;2023-07-13T16:22:33;13;13;
76483;PMS5003;65318;-33.924;18.406;2023-07-13T16:24:59;12;12;
76483;PMS5003;65318;-33.924;18.406;2023-07-13T16:27:24;13;13;
76483;PMS5003;65318;-33.924;18.406;2023-07-13T16:29:50;12;12;
76483;PMS5003;65318;-33.924;18.406;2023-07-13T16:32:15;14;14;
76483;PMS5003;65318;-33.924;18.406;2023-07-13T16:34:41;14;14;
76483;PMS5003;65318;-33.924;18.406;2023-07-13T16:37:11;13;13;
76483;PMS5003;65318;-33.924;18.406;2023-07-13T16:39:32;15;15;
76483;PMS5003;65318;-33.924;18.406;2023-07-13T16:41:58;15;14;
76483;PMS5003;65318;-33.924;18.406;2023-07-13T16:44:24;16;15;
76483;PMS5003;65318;-33.924;18.406;2023-07-13T16:46:49;14;14;
76483;PMS5003;65318;-33.924;18.406;2023-07-13T16:51:40;14;13;
76483;PMS5003;65318;-33.924;18.406;2023-07-13T16:54:07;16;14;
76483;PMS5003;65318;-33.924;18.406;2023-07-13T16:56:31;15;14;
76483;PMS5003;65318;-33.924;18.406;2023-07-13T16:58:57;17;17;
76483;PMS5003;65318;-33.924;18.406;2023-07-13T17:01:23;16;16;
76483;PMS5003;65318;-33.924;18.406;2023-07-13T17:03:47;14;14;
76483;PMS5003;65318;-33.924;18.406;2023-07-13T17:08:38;19;17;
76483;PMS5003;65318;-33.924;18.406;2023-07-13T17:11:04;17;17;
76483;PMS5003;65318;-33.924;18.406;2023-07-13T17:13:29;16;16;
76483;PMS5003;65318;-33.924;18.406;2023-07-13T17:15:55;15;15;
76483;PMS5003;65318;-33.924;18.406;2023-07-13T17:18:20;16;15;
76483;PMS5003;65318;-33.924;18.406;2023-07-13T17:20:45;18;17;
76483;PMS5003;65318;-33.924;18.406;2023-07-13T17:23:13;14;14;
76483;PMS5003;65318;-33.924;18.406;2023-07-13T17:25:36;16;15;
76483;PMS5003;65318;-33.924;18.406;2023-07-13T17:28:01;23;20;
76483;PMS5003;65318;-33.924;18.406;2023-07-13T17:30:27;15;15;
76483;PMS5003;65318;-33.924;18.406;2023-07-13T17:32:52;20;17;
76483;PMS5003;65318;-33.924;18.406;2023-07-13T17:35:22;17;17;
76483;PMS5003;65318;-33.924;18.406;2023-07-13T17:37:43;18;16;
76483;PMS5003;65318;-33.924;18.406;2023-07-13T17:40:12;17;17;
76483;PMS5003;65318;-33.924;18.406;2023-07-13T17:42:34;16;14;
76483;PMS5003;65318;-33.924;18.406;2023-07-13T17:44:59;19;18;
76483;PMS5003;65318;-33.924;18.406;2023-07-13T17:47:25;18;16;
76483;PMS5003;65318;-33.924;18.406;2023-07-13T17:49:50;20;19;
76483;PMS5003;65318;-33.924;18.406;2023-07-13T17:52:16;19;18;
76483;PMS5003;65318;-33.924;18.406;2023-07-13T17:54:41;17;17;
76483;PMS5003;65318;-33.924;18.406;2023-07-13T17:57:07;19;19;
76483;PMS5003;65318;-33.924;18.406;2023-07-13T17:59:32;19;19;
76483;PMS5003;65318;-33.924;18.406;2023-07-13T18:01:58;20;19;
76483;PMS5003;65318;-33.924;18.406;2023-07-13T18:04:23;16;16;
76483;PMS5003;65318;-33.924;18.406;2023-07-13T18:06:49;20;20;
76483;PMS5003;65318;-33.924;18.406;2023-07-13T18:09:15;20;20;
76483;PMS5003;65318;-33.924;18.406;2023-07-13T18:11:39;21;21;
76483;PMS5003;65318;-33.924;18.406;2023-07-13T18:14:05;20;19;
76483;PMS5003;65318;-33.924;18.406;2023-07-13T18:16:31;22;22;
76483;PMS5003;65318;-33.924;18.406;2023-07-13T20:08:38;17;17;
76483;PMS5003;65318;-33.924;18.406;2023-07-13T20:11:03;22;21;
76483;PMS5003;65318;-33.924;18.406;2023-07-13T20:13:29;21;20;
76483;PMS5003;65318;-33.924;18.406;2023-07-13T20:15:55;22;21;
76483;PMS5003;65318;-33.924;18.406;2023-07-13T20:18:21;23;21;
76483;PMS5003;65318;-33.924;18.406;2023-07-13T20:20:46;18;18;
76483;PMS5003;65318;-33.924;18.406;2023-07-13T20:23:13;19;19;
76483;PMS5003;65318;-33.924;18.406;2023-07-13T20:25:37;20;19;
76483;PMS5003;65318;-33.924;18.406;2023-07-13T20:28:03;19;17;
76483;PMS5003;65318;-33.924;18.406;2023-07-13T20:30:28;22;21;
76483;PMS5003;65318;-33.924;18.406;2023-07-13T20:32:53;19;19;
76483;PMS5003;65318;-33.924;18.406;2023-07-13T20:35:24;20;19;
76483;PMS5003;65318;-33.924;18.406;2023-07-13T20:37:44;23;22;
76483;PMS5003;65318;-33.924;18.406;2023-07-13T20:40:12;22;19;
76483;PMS5003;65318;-33.924;18.406;2023-07-13T20:42:35;18;17;
76483;PMS5003;65318;-33.924;18.406;2023-07-13T20:45:01;20;20;
76483;PMS5003;65318;-33.924;18.406;2023-07-13T20:47:26;19;17;
76483;PMS5003;65318;-33.924;18.406;2023-07-13T20:49:52;18;17;
76483;PMS5003;65318;-33.924;18.406;2023-07-13T20:52:17;19;19;
76483;PMS5003;65318;-33.924;18.406;2023-07-13T20:54:43;16;16;
76483;PMS5003;65318;-33.924;18.406;2023-07-13T20:57:09;18;17;
76483;PMS5003;65318;-33.924;18.406;2023-07-13T20:59:34;19;19;
76483;PMS5003;65318;-33.924;18.406;2023-07-13T21:01:59;19;17;
76483;PMS5003;65318;-33.924;18.406;2023-07-13T21:04:25;17;17;
76483;PMS5003;65318;-33.924;18.406;2023-07-13T21:06:51;19;19;
76483;PMS5003;65318;-33.924;18.406;2023-07-13T21:09:17;16;16;
76483;PMS5003;65318;-33.924;18.406;2023-07-13T21:11:42;18;17;
76483;PMS5003;65318;-33.924;18.406;2023-07-13T21:14:07;18;18;
76483;PMS5003;65318;-33.924;18.406;2023-07-13T21:16:32;16;16;
76483;PMS5003;65318;-33.924;18.406;2023-07-13T21:18:58;19;17;
76483;PMS5003;65318;-33.924;18.406;2023-07-13T21:21:24;18;17;
76483;PMS5003;65318;-33.924;18.406;2023-07-13T21:23:49;19;18;
76483;PMS5003;65318;-33.924;18.406;2023-07-13T21:26:14;18;18;
76483;PMS5003;65318;-33.924;18.406;2023-07-13T21:28:40;18;18;
76483;PMS5003;65318;-33.924;18.406;2023-07-13T21:31:05;16;16;
76483;PMS5003;65318;-33.924;18.406;2023-07-13T21:33:30;22;20;
76483;PMS5003;65318;-33.924;18.406;2023-07-13T21:35:56;18;17;
76483;PMS5003;65318;-33.924;18.406;2023-07-13T21:38:22;16;16;
76483;PMS5003;65318;-33.924;18.406;2023-07-13T21:40:47;16;16;
76483;PMS5003;65318;-33.924;18.406;2023-07-13T21:43:13;19;19;
76483;PMS5003;65318;-33.924;18.406;2023-07-13T21:45:38;19;19;